To NAV CANADA Home Page Login to a new session Search on AWWS site Feedback and Comments Disclaimer Vers la page française équivalente Tips FAQ What's new on the site To the Forecasts and Observations / NOTAM section To "File a Flight Plan" website Publications and other links Update of the User's profile FIC Telephone Numbers My Weather Data Folder Route Weather Data Regional Weather Data Local Weather Data To the Forecasts and Observations / NOTAM section
Request Generated 06/26/2017 at 22:32:41 UTC . Weather information available at that time is displayed.

METAR/TAF

EDMONTON INTL/AB    

METAR CYEG 262200Z VRB03KT 15SM FEW055TCU FEW140 SCT240 27/13 A2964
RMK TCU1AC1CI2 TCU TR SLP032 DENSITY ALT 4700FT=
METAR CYEG 262100Z 00000KT 15SM FEW050 FEW140 FEW160 BKN240 27/15
A2966 RMK CU1ACC1AC1CI3 CU TR SLP038 DENSITY ALT 4600FT=
METAR CYEG 262000Z 17005KT 130V200 15SM FEW045TCU FEW140 FEW180
BKN230 25/14 A2968 RMK TCU1ACC1AC1CI5 TCU TR TCU DIST W ACC N
SLP045 DENSITY ALT 4400FT=

TAF CYEG 262038Z 2621/2718 18010KT P6SM FEW050 SCT140 BKN220
FM262300 21012G22KT P6SM FEW080 SCT120 BKN200 TEMPO 2623/2702
SCT080 BKN120
FM270200 21012KT P6SM SCT080 BKN120 BKN200 PROB30 2702/2705
VRB30G45KT 6SM TSRA BKN080CB
FM270500 32015G25KT P6SM SCT030 TEMPO 2707/2712 SCT015 BKN030
FM271200 32020G30KT P6SM SCT015 BKN030
RMK NXT FCST BY 270000Z=
Your time UTC time
Weather data provided by Environment Canada and NAV CANADA